createdAt,value
2018-09-02T00:00:30.441Z,97.71
2018-09-02T00:01:30.441Z,97.90
2018-09-02T00:02:30.442Z,98.00
2018-09-02T00:03:30.439Z,97.90
2018-09-02T00:04:30.439Z,98.00
2018-09-02T00:05:30.438Z,98.67
2018-09-02T00:06:30.439Z,98.19
2018-09-02T00:07:30.435Z,99.15
2018-09-02T00:08:30.436Z,98.43
2018-09-02T00:09:30.434Z,99.29
2018-09-02T00:10:30.431Z,99.10
2018-09-02T00:11:30.434Z,99.29
2018-09-02T00:12:30.440Z,99.38
2018-09-02T00:13:30.430Z,99.48
2018-09-02T00:14:30.430Z,99.29
2018-09-02T00:15:30.430Z,99.00
2018-09-02T00:16:30.431Z,99.99
2018-09-02T00:17:30.428Z,99.99
2018-09-02T00:18:30.425Z,99.87
2018-09-02T00:19:30.428Z,99.99
2018-09-02T00:20:30.515Z,99.99
2018-09-02T00:21:30.425Z,99.99
2018-09-02T00:22:30.424Z,99.96
2018-09-02T00:23:30.424Z,99.99
2018-09-02T00:24:30.422Z,99.99
2018-09-02T00:25:30.417Z,99.99
2018-09-02T00:26:30.420Z,99.99
2018-09-02T00:27:30.421Z,99.99
2018-09-02T00:28:30.422Z,99.99
2018-09-02T00:29:30.417Z,99.99
2018-09-02T00:30:30.419Z,99.99
2018-09-02T00:31:30.416Z,99.99
2018-09-02T00:32:30.417Z,99.99
2018-09-02T00:33:30.417Z,99.99
2018-09-02T00:34:30.412Z,99.99
2018-09-02T00:35:30.413Z,99.99
2018-09-02T00:36:30.412Z,99.99
2018-09-02T00:37:30.411Z,99.99
2018-09-02T00:38:30.416Z,99.99
2018-09-02T00:39:30.412Z,99.99
2018-09-02T00:40:30.410Z,99.99
2018-09-02T00:41:30.406Z,99.99
2018-09-02T00:42:30.404Z,99.99
2018-09-02T00:43:30.404Z,99.99
2018-09-02T00:44:30.405Z,99.99
2018-09-02T00:45:30.403Z,99.99
2018-09-02T00:46:30.405Z,99.99
2018-09-02T00:47:30.398Z,99.99
2018-09-02T00:48:30.398Z,99.99
2018-09-02T00:49:30.401Z,99.99
2018-09-02T00:50:30.395Z,99.99
2018-09-02T00:51:30.399Z,99.99
2018-09-02T00:52:30.396Z,99.99
2018-09-02T00:53:30.396Z,99.99
2018-09-02T00:54:30.392Z,99.99
2018-09-02T00:55:30.392Z,99.99
2018-09-02T00:56:30.390Z,99.99
2018-09-02T00:57:30.388Z,99.99
2018-09-02T00:58:30.386Z,99.99
2018-09-02T00:59:30.387Z,99.99
2018-09-02T01:00:30.385Z,99.99
2018-09-02T01:01:30.383Z,99.99
2018-09-02T01:02:30.385Z,99.99
2018-09-02T01:03:30.380Z,99.99
2018-09-02T01:04:30.379Z,99.99
2018-09-02T01:05:30.378Z,99.99
2018-09-02T01:06:30.376Z,99.99
2018-09-02T01:07:30.378Z,99.99
2018-09-02T01:08:30.374Z,99.99
2018-09-02T01:09:30.372Z,99.99
2018-09-02T01:10:30.371Z,99.99
2018-09-02T01:11:30.369Z,99.99
2018-09-02T01:12:30.368Z,99.99
2018-09-02T01:13:30.370Z,99.99
2018-09-02T01:14:30.363Z,99.99
2018-09-02T01:15:30.367Z,99.99
2018-09-02T01:16:30.362Z,99.99
2018-09-02T01:17:30.356Z,99.99
2018-09-02T01:18:30.358Z,99.99
2018-09-02T01:19:30.361Z,99.99
2018-09-02T01:20:30.356Z,99.99
2018-09-02T01:21:30.354Z,99.99
2018-09-02T01:22:30.360Z,99.99
2018-09-02T01:23:30.351Z,99.99
2018-09-02T01:24:30.349Z,99.99
2018-09-02T01:25:30.350Z,99.99
2018-09-02T01:26:30.347Z,99.99
2018-09-02T01:27:30.346Z,99.99
2018-09-02T01:28:30.348Z,99.99
2018-09-02T01:29:30.345Z,99.99
2018-09-02T01:30:30.340Z,99.99
2018-09-02T01:31:30.339Z,99.99
2018-09-02T01:32:30.339Z,99.99
2018-09-02T01:33:30.337Z,99.99
2018-09-02T01:34:30.334Z,99.99
2018-09-02T01:35:30.337Z,99.99
2018-09-02T01:36:30.334Z,99.99
2018-09-02T01:37:30.328Z,99.99
2018-09-02T01:38:30.331Z,99.99
2018-09-02T01:39:30.329Z,99.99
2018-09-02T01:40:30.327Z,99.99
2018-09-02T01:41:30.324Z,99.99
2018-09-02T01:42:30.322Z,99.99
2018-09-02T01:43:30.319Z,99.99
2018-09-02T01:44:30.320Z,99.99
2018-09-02T01:45:30.317Z,99.99
2018-09-02T01:46:30.323Z,99.99
2018-09-02T01:47:30.319Z,99.99
2018-09-02T01:48:30.316Z,99.99
2018-09-02T01:49:30.310Z,99.99
2018-09-02T01:50:30.309Z,99.99
2018-09-02T01:51:30.309Z,99.99
2018-09-02T01:52:30.307Z,99.99
2018-09-02T01:53:30.309Z,99.99
2018-09-02T01:54:30.303Z,99.99
2018-09-02T01:55:30.303Z,99.99
2018-09-02T01:56:30.302Z,99.99
2018-09-02T01:57:30.300Z,99.99
2018-09-02T01:58:30.297Z,99.99
2018-09-02T01:59:30.297Z,99.99
2018-09-02T02:00:30.294Z,99.99
2018-09-02T02:01:30.294Z,99.99
2018-09-02T02:02:30.294Z,99.99
2018-09-02T02:03:30.289Z,99.99
2018-09-02T02:04:30.289Z,99.99
2018-09-02T02:05:30.285Z,99.99
2018-09-02T02:06:30.285Z,99.99
2018-09-02T02:07:30.281Z,99.99
2018-09-02T02:08:30.280Z,99.99
2018-09-02T02:09:30.288Z,99.99
2018-09-02T02:10:30.276Z,99.99
2018-09-02T02:11:30.274Z,99.99
2018-09-02T02:12:30.274Z,99.99
2018-09-02T02:13:30.271Z,99.99
2018-09-02T02:14:30.272Z,99.99
2018-09-02T02:15:30.268Z,99.99
2018-09-02T02:16:30.269Z,99.99
2018-09-02T02:17:30.266Z,99.99
2018-09-02T02:18:30.263Z,99.99
2018-09-02T02:19:30.260Z,99.99
2018-09-02T02:20:30.259Z,99.99
2018-09-02T02:21:30.265Z,99.99
2018-09-02T02:22:30.255Z,99.99
2018-09-02T02:23:30.255Z,99.99
2018-09-02T02:24:30.255Z,99.99
2018-09-02T02:25:30.251Z,99.99
2018-09-02T02:26:30.246Z,99.99
2018-09-02T02:27:30.246Z,99.99
2018-09-02T02:28:30.247Z,99.99
2018-09-02T02:29:30.243Z,99.99
2018-09-02T02:30:30.239Z,99.99
2018-09-02T02:31:30.241Z,99.99
2018-09-02T02:32:30.238Z,99.99
2018-09-02T02:33:30.238Z,99.99
2018-09-02T02:34:30.235Z,99.99
2018-09-02T02:35:30.232Z,99.99
2018-09-02T02:36:30.232Z,99.99
2018-09-02T02:37:30.229Z,99.99
2018-09-02T02:38:30.227Z,99.99
2018-09-02T02:39:30.228Z,99.99
2018-09-02T02:40:30.224Z,99.99
2018-09-02T02:41:30.224Z,99.99
2018-09-02T02:42:30.219Z,99.99
2018-09-02T02:43:30.219Z,99.99
2018-09-02T02:44:30.215Z,99.99
2018-09-02T02:45:30.218Z,99.99
2018-09-02T02:46:30.213Z,99.99
2018-09-02T02:47:30.209Z,99.99
2018-09-02T02:48:30.210Z,99.99
2018-09-02T02:49:30.207Z,99.99
2018-09-02T02:50:30.206Z,99.99
2018-09-02T02:51:30.202Z,99.99
2018-09-02T02:52:30.203Z,99.99
2018-09-02T02:53:30.200Z,99.99
2018-09-02T02:54:30.202Z,99.99
2018-09-02T02:55:30.196Z,99.99
2018-09-02T02:56:30.196Z,99.99
2018-09-02T02:57:30.196Z,99.99
2018-09-02T02:58:30.192Z,99.99
2018-09-02T02:59:30.190Z,99.99
2018-09-02T03:00:30.187Z,99.99
2018-09-02T03:01:30.186Z,99.99
2018-09-02T03:02:30.189Z,99.99
2018-09-02T03:03:30.184Z,99.99
2018-09-02T03:04:30.186Z,99.99
2018-09-02T03:05:30.180Z,99.99
2018-09-02T03:06:30.179Z,99.99
2018-09-02T03:07:30.182Z,99.99
2018-09-02T03:08:30.177Z,99.99
2018-09-02T03:09:30.173Z,99.99
2018-09-02T03:10:30.170Z,99.99
2018-09-02T03:11:30.169Z,99.99
2018-09-02T03:12:30.174Z,99.99
2018-09-02T03:13:30.166Z,99.99
2018-09-02T03:14:30.163Z,99.99
2018-09-02T03:15:30.165Z,99.99
2018-09-02T03:16:30.160Z,99.99
2018-09-02T03:17:30.159Z,99.99
2018-09-02T03:18:30.159Z,99.99
2018-09-02T03:19:30.158Z,99.99
2018-09-02T03:20:30.155Z,99.99
2018-09-02T03:21:30.152Z,99.99
2018-09-02T03:22:30.149Z,99.99
2018-09-02T03:23:30.150Z,99.99
2018-09-02T03:24:30.147Z,99.99
2018-09-02T03:25:30.150Z,99.99
2018-09-02T03:26:30.143Z,99.99
2018-09-02T03:27:30.143Z,99.99
2018-09-02T03:28:30.142Z,99.99
2018-09-02T03:29:30.137Z,99.99
2018-09-02T03:30:30.136Z,99.99
2018-09-02T03:31:30.152Z,99.99
2018-09-02T03:32:30.132Z,99.99
2018-09-02T03:33:30.128Z,99.99
2018-09-02T03:34:30.129Z,99.99
2018-09-02T03:35:30.127Z,99.99
2018-09-02T03:36:30.125Z,99.99
2018-09-02T03:37:30.125Z,99.99
2018-09-02T03:38:30.122Z,99.99
2018-09-02T03:39:30.120Z,99.99
2018-09-02T03:40:30.121Z,99.99
2018-09-02T03:41:30.114Z,99.99
2018-09-02T03:42:30.113Z,99.99
2018-09-02T03:43:30.109Z,99.99
2018-09-02T03:44:30.106Z,99.99
2018-09-02T03:45:30.109Z,99.99
2018-09-02T03:46:30.106Z,99.99
2018-09-02T03:47:30.100Z,99.99
2018-09-02T03:48:30.101Z,99.99
2018-09-02T03:49:30.097Z,99.99
2018-09-02T03:50:30.091Z,99.99
2018-09-02T03:51:30.098Z,99.99
2018-09-02T03:52:30.092Z,99.99
2018-09-02T03:53:30.091Z,99.99
2018-09-02T03:54:30.085Z,99.99
2018-09-02T03:55:30.089Z,99.99
2018-09-02T03:56:30.087Z,99.99
2018-09-02T03:57:30.086Z,99.99
2018-09-02T03:58:30.081Z,99.99
2018-09-02T03:59:30.075Z,99.99
2018-09-02T04:00:30.074Z,99.99
2018-09-02T04:01:30.070Z,99.99
2018-09-02T04:02:30.074Z,99.99
2018-09-02T04:03:30.068Z,99.99
2018-09-02T04:04:30.067Z,99.99
2018-09-02T04:05:30.065Z,99.99
2018-09-02T04:06:30.061Z,99.99
2018-09-02T04:07:30.066Z,99.99
2018-09-02T04:08:30.062Z,99.99
2018-09-02T04:09:30.056Z,99.99
2018-09-02T04:10:30.052Z,99.99
2018-09-02T04:11:30.076Z,99.99
2018-09-02T04:12:30.059Z,99.99
2018-09-02T04:13:30.046Z,99.99
2018-09-02T04:14:30.047Z,99.99
2018-09-02T04:15:30.044Z,99.99
2018-09-02T04:16:30.043Z,99.99
2018-09-02T04:17:30.041Z,99.99
2018-09-02T04:18:30.070Z,99.99
2018-09-02T04:19:30.036Z,99.99
2018-09-02T04:20:30.037Z,99.99
2018-09-02T04:21:30.030Z,99.99
2018-09-02T04:22:30.028Z,99.99
2018-09-02T04:23:30.025Z,99.99
2018-09-02T04:24:30.026Z,99.99
2018-09-02T04:25:30.025Z,99.99
2018-09-02T04:26:30.020Z,99.99
2018-09-02T04:27:30.017Z,99.99
2018-09-02T04:28:30.020Z,99.99
2018-09-02T04:29:30.012Z,99.99
2018-09-02T04:30:30.010Z,99.99
2018-09-02T04:31:30.008Z,99.99
2018-09-02T04:32:30.007Z,99.99
2018-09-02T04:33:30.009Z,99.99
2018-09-02T04:34:30.000Z,99.99
2018-09-02T04:35:30.000Z,99.99
2018-09-02T04:36:29.994Z,99.99
2018-09-02T04:37:29.996Z,99.99
2018-09-02T04:38:29.997Z,99.99
2018-09-02T04:39:29.989Z,99.99
2018-09-02T04:40:29.988Z,99.99
2018-09-02T04:41:29.984Z,99.99
2018-09-02T04:42:29.983Z,99.99
2018-09-02T04:43:29.985Z,99.99
2018-09-02T04:44:29.981Z,99.99
2018-09-02T04:45:29.974Z,99.99
2018-09-02T04:46:29.973Z,99.99
2018-09-02T04:47:29.971Z,99.99
2018-09-02T04:48:29.969Z,99.99
2018-09-02T04:49:29.969Z,99.99
2018-09-02T04:50:29.963Z,99.99
2018-09-02T04:51:29.959Z,99.99
2018-09-02T04:52:29.960Z,99.99
2018-09-02T04:53:29.960Z,99.99
2018-09-02T04:54:30.048Z,99.99
2018-09-02T04:55:29.955Z,99.99
2018-09-02T04:56:30.009Z,99.99
2018-09-02T04:57:29.949Z,99.99
2018-09-02T04:58:29.946Z,99.99
2018-09-02T04:59:29.942Z,99.99
2018-09-02T05:00:30.082Z,99.99
2018-09-02T05:01:29.939Z,99.99
2018-09-02T05:02:29.950Z,99.99
2018-09-02T05:03:29.934Z,99.99
2018-09-02T05:04:29.933Z,99.99
2018-09-02T05:05:29.930Z,99.99
2018-09-02T05:06:29.926Z,99.99
2018-09-02T05:07:29.928Z,99.99
2018-09-02T05:08:29.925Z,99.99
2018-09-02T05:09:29.920Z,99.99
2018-09-02T05:10:29.918Z,99.99
2018-09-02T05:11:29.915Z,99.99
2018-09-02T05:12:29.915Z,99.99
2018-09-02T05:13:29.910Z,99.99
2018-09-02T05:14:29.914Z,99.99
2018-09-02T05:15:29.911Z,99.99
2018-09-02T05:16:29.904Z,99.99
2018-09-02T05:17:29.899Z,99.99
2018-09-02T05:18:29.900Z,99.99
2018-09-02T05:19:29.894Z,99.99
2018-09-02T05:20:29.894Z,99.99
2018-09-02T05:21:29.890Z,99.99
2018-09-02T05:22:29.887Z,99.99
2018-09-02T05:23:29.887Z,99.99
2018-09-02T05:24:29.884Z,99.99
2018-09-02T05:25:29.882Z,99.99
2018-09-02T05:26:29.880Z,99.99
2018-09-02T05:27:29.877Z,99.99
2018-09-02T05:28:29.877Z,99.99
2018-09-02T05:29:29.872Z,99.99
2018-09-02T05:30:29.871Z,99.99
2018-09-02T05:31:29.869Z,99.99
2018-09-02T05:32:29.866Z,99.99
2018-09-02T05:33:29.862Z,99.99
2018-09-02T05:34:29.864Z,99.99
2018-09-02T05:35:29.858Z,99.99
2018-09-02T05:36:29.857Z,99.99
2018-09-02T05:37:29.853Z,99.99
2018-09-02T05:38:29.854Z,99.99
2018-09-02T05:39:29.848Z,99.99
2018-09-02T05:40:29.847Z,99.99
2018-09-02T05:41:29.848Z,99.99
2018-09-02T05:42:29.842Z,99.99
2018-09-02T05:43:29.841Z,99.99
2018-09-02T05:44:29.838Z,99.99
2018-09-02T05:45:29.838Z,99.99
2018-09-02T05:46:29.833Z,99.99
2018-09-02T05:47:29.832Z,99.99
2018-09-02T05:48:29.831Z,99.99
2018-09-02T05:49:29.825Z,99.99
2018-09-02T05:50:29.824Z,99.99
2018-09-02T05:51:29.825Z,99.99
2018-09-02T05:52:29.821Z,99.99
2018-09-02T05:53:29.815Z,99.99
2018-09-02T05:54:29.816Z,99.99
2018-09-02T05:55:29.812Z,99.99
2018-09-02T05:56:29.817Z,99.99
2018-09-02T05:57:29.849Z,99.99
2018-09-02T05:58:29.807Z,99.99
2018-09-02T05:59:29.805Z,99.99
2018-09-02T06:00:29.803Z,99.99
2018-09-02T06:01:29.800Z,99.99
2018-09-02T06:02:29.799Z,99.99
2018-09-02T06:03:29.800Z,99.99
2018-09-02T06:04:29.792Z,99.99
2018-09-02T06:05:29.794Z,99.99
2018-09-02T06:06:29.907Z,99.99
2018-09-02T06:07:29.786Z,99.99
2018-09-02T06:08:29.784Z,99.99
2018-09-02T06:09:29.831Z,99.99
2018-09-02T06:10:29.779Z,99.99
2018-09-02T06:11:29.776Z,99.99
2018-09-02T06:12:29.776Z,99.99
2018-09-02T06:13:29.770Z,99.99
2018-09-02T06:14:29.770Z,99.99
2018-09-02T06:15:29.770Z,99.99
2018-09-02T06:16:29.768Z,99.99
2018-09-02T06:17:29.765Z,99.99
2018-09-02T06:18:29.763Z,99.99
2018-09-02T06:19:29.762Z,99.99
2018-09-02T06:20:29.758Z,99.99
2018-09-02T06:21:29.762Z,99.99
2018-09-02T06:22:29.750Z,99.99
2018-09-02T06:23:29.753Z,99.99
2018-09-02T06:24:29.752Z,99.99
2018-09-02T06:25:29.753Z,99.99
2018-09-02T06:26:29.743Z,99.99
2018-09-02T06:27:29.747Z,99.99
2018-09-02T06:28:29.740Z,99.99
2018-09-02T06:29:29.738Z,99.99
2018-09-02T06:30:29.739Z,99.99
2018-09-02T06:31:29.735Z,99.99
2018-09-02T06:32:29.740Z,99.99
2018-09-02T06:33:29.733Z,99.99
2018-09-02T06:34:29.727Z,99.99
2018-09-02T06:35:29.790Z,99.99
2018-09-02T06:36:29.727Z,99.99
2018-09-02T06:37:29.722Z,99.99
2018-09-02T06:38:29.720Z,99.99
2018-09-02T06:39:29.761Z,99.99
2018-09-02T06:40:29.747Z,99.99
2018-09-02T06:41:29.714Z,99.99
2018-09-02T06:42:29.712Z,99.99
2018-09-02T06:43:29.713Z,99.99
2018-09-02T06:44:29.708Z,99.99
2018-09-02T06:45:29.706Z,99.99
2018-09-02T06:46:29.705Z,99.99
2018-09-02T06:47:29.704Z,99.99
2018-09-02T06:48:29.701Z,99.99
2018-09-02T06:49:29.698Z,99.99
2018-09-02T06:50:29.696Z,99.99
2018-09-02T06:51:29.731Z,99.99
2018-09-02T06:52:29.699Z,99.99
2018-09-02T06:53:29.692Z,99.99
2018-09-02T06:54:29.688Z,99.99
2018-09-02T06:55:29.691Z,99.99
2018-09-02T06:56:29.686Z,99.99
2018-09-02T06:57:29.683Z,99.99
2018-09-02T06:58:29.702Z,99.99
2018-09-02T06:59:29.681Z,99.99
2018-09-02T07:00:29.679Z,99.99
2018-09-02T07:01:29.676Z,99.99
2018-09-02T07:02:29.672Z,99.99
2018-09-02T07:03:29.671Z,99.99
2018-09-02T07:04:29.672Z,99.99
2018-09-02T07:05:29.669Z,99.99
2018-09-02T07:06:29.680Z,99.99
2018-09-02T07:07:29.722Z,99.99
2018-09-02T07:08:29.666Z,99.99
2018-09-02T07:09:29.663Z,99.99
2018-09-02T07:10:29.662Z,99.99
2018-09-02T07:11:29.663Z,99.99
2018-09-02T07:12:29.660Z,99.99
2018-09-02T07:13:29.662Z,99.99
2018-09-02T07:14:29.840Z,99.99
2018-09-02T07:15:29.934Z,99.99
2018-09-02T07:16:29.654Z,99.99
2018-09-02T07:17:29.650Z,99.99
2018-09-02T07:18:29.650Z,99.99
2018-09-02T07:19:29.652Z,99.68
2018-09-02T07:20:29.653Z,99.20
2018-09-02T07:21:29.648Z,99.63
2018-09-02T07:22:29.646Z,99.99
2018-09-02T07:23:29.646Z,99.99
2018-09-02T07:24:29.643Z,99.99
2018-09-02T07:25:29.642Z,99.99
2018-09-02T07:26:29.643Z,99.99
2018-09-02T07:27:29.643Z,99.99
2018-09-02T07:28:29.640Z,99.99
2018-09-02T07:29:29.640Z,99.99
2018-09-02T07:30:29.643Z,99.99
2018-09-02T07:31:29.676Z,99.99
2018-09-02T07:32:29.638Z,99.99
2018-09-02T07:33:29.635Z,99.99
2018-09-02T07:34:29.636Z,99.99
2018-09-02T07:35:29.637Z,99.99
2018-09-02T07:36:29.632Z,99.99
2018-09-02T07:37:29.636Z,99.99
2018-09-02T07:38:29.632Z,99.99
2018-09-02T07:39:29.628Z,99.99
2018-09-02T07:40:29.632Z,99.99
2018-09-02T07:41:29.630Z,99.99
2018-09-02T07:42:29.626Z,99.99
2018-09-02T07:43:29.674Z,99.99
2018-09-02T07:44:29.628Z,99.99
2018-09-02T07:45:29.625Z,99.99
2018-09-02T07:46:29.626Z,99.99
2018-09-02T07:47:29.624Z,99.99
2018-09-02T07:48:29.624Z,99.99
2018-09-02T07:49:29.619Z,99.99
2018-09-02T07:50:29.624Z,99.99
2018-09-02T07:51:29.619Z,99.99
2018-09-02T07:52:29.619Z,99.99
2018-09-02T07:53:29.619Z,99.99
2018-09-02T07:54:29.665Z,99.99
2018-09-02T07:55:29.617Z,99.99
2018-09-02T07:56:29.617Z,99.99
2018-09-02T07:57:29.613Z,99.99
2018-09-02T07:58:29.610Z,99.99
2018-09-02T07:59:29.612Z,99.99
2018-09-02T08:00:29.610Z,99.99
2018-09-02T08:01:29.610Z,99.99
2018-09-02T08:02:29.605Z,99.99
2018-09-02T08:03:29.604Z,99.99
2018-09-02T08:04:29.610Z,99.99
2018-09-02T08:05:29.609Z,99.99
2018-09-02T08:06:29.604Z,99.99
2018-09-02T08:07:29.604Z,99.99
2018-09-02T08:08:29.607Z,99.99
2018-09-02T08:09:29.605Z,99.99
2018-09-02T08:10:29.611Z,99.99
2018-09-02T08:11:29.600Z,99.99
2018-09-02T08:12:29.620Z,99.99
2018-09-02T08:13:29.599Z,99.99
2018-09-02T08:14:29.596Z,99.99
2018-09-02T08:15:30.014Z,99.99
2018-09-02T08:16:29.597Z,99.99
2018-09-02T08:17:29.596Z,99.99
2018-09-02T08:18:29.595Z,99.96
2018-09-02T08:19:29.596Z,99.99
2018-09-02T08:20:29.594Z,99.99
2018-09-02T08:21:29.593Z,99.99
2018-09-02T08:22:29.593Z,99.99
2018-09-02T08:23:29.594Z,99.68
2018-09-02T08:24:29.594Z,99.99
2018-09-02T08:25:29.592Z,99.99
2018-09-02T08:26:29.595Z,99.99
2018-09-02T08:27:29.592Z,99.99
2018-09-02T08:28:29.596Z,99.99
2018-09-02T08:29:29.589Z,99.99
2018-09-02T08:30:29.591Z,99.25
2018-09-02T08:31:29.591Z,99.05
2018-09-02T08:32:29.590Z,99.34
2018-09-02T08:33:29.593Z,98.10
2018-09-02T08:34:29.587Z,98.62
2018-09-02T08:35:29.590Z,99.34
2018-09-02T08:36:29.589Z,99.44
2018-09-02T08:37:29.588Z,99.34
2018-09-02T08:38:29.589Z,98.77
2018-09-02T08:39:29.587Z,97.57
2018-09-02T08:40:29.586Z,97.33
2018-09-02T08:41:29.588Z,97.61
2018-09-02T08:42:29.589Z,97.91
2018-09-02T08:43:29.586Z,98.10
2018-09-02T08:44:29.589Z,97.81
2018-09-02T08:45:29.585Z,98.58
2018-09-02T08:46:29.590Z,98.19
2018-09-02T08:47:29.585Z,98.58
2018-09-02T08:48:29.590Z,98.77
2018-09-02T08:49:29.586Z,98.86
2018-09-02T08:50:29.601Z,98.38
2018-09-02T08:51:29.588Z,98.58
2018-09-02T08:52:29.592Z,98.48
2018-09-02T08:53:29.584Z,98.19
2018-09-02T08:54:29.586Z,98.96
2018-09-02T08:55:29.584Z,98.38
2018-09-02T08:56:29.585Z,98.58
2018-09-02T08:57:29.583Z,98.67
2018-09-02T08:58:29.587Z,98.29
2018-09-02T08:59:29.583Z,97.91
2018-09-02T09:00:29.584Z,97.91
2018-09-02T09:01:29.623Z,97.71
2018-09-02T09:02:29.585Z,97.57
2018-09-02T09:03:29.583Z,97.38
2018-09-02T09:04:29.581Z,97.28
2018-09-02T09:05:29.580Z,97.42
2018-09-02T09:06:29.585Z,97.14
2018-09-02T09:07:29.606Z,97.28
2018-09-02T09:08:29.872Z,96.99
2018-09-02T09:09:29.579Z,97.24
2018-09-02T09:10:29.579Z,97.52
2018-09-02T09:11:29.585Z,97.24
2018-09-02T09:12:29.583Z,96.94
2018-09-02T09:13:29.579Z,97.24
2018-09-02T09:14:29.584Z,96.56
2018-09-02T09:15:29.587Z,97.04
2018-09-02T09:16:29.586Z,96.61
2018-09-02T09:17:29.580Z,96.51
2018-09-02T09:18:29.581Z,96.32
2018-09-02T09:19:29.580Z,97.14
2018-09-02T09:20:29.583Z,96.61
2018-09-02T09:21:29.606Z,96.32
2018-09-02T09:22:29.603Z,96.03
2018-09-02T09:23:29.580Z,95.65
2018-09-02T09:24:29.584Z,96.13
2018-09-02T09:25:29.579Z,95.65
2018-09-02T09:26:29.580Z,96.13
2018-09-02T09:27:29.579Z,96.03
2018-09-02T09:28:29.580Z,95.65
2018-09-02T09:29:29.580Z,95.36
2018-09-02T09:30:29.580Z,95.07
2018-09-02T09:31:29.581Z,94.88
2018-09-02T09:32:29.581Z,95.84
2018-09-02T09:33:29.581Z,95.65
2018-09-02T09:34:29.580Z,95.75
2018-09-02T09:35:29.579Z,95.75
2018-09-02T09:36:29.579Z,95.36
2018-09-02T09:37:29.580Z,95.36
2018-09-02T09:38:29.580Z,95.75
2018-09-02T09:39:29.579Z,95.26
2018-09-02T09:40:29.580Z,95.75
2018-09-02T09:41:29.582Z,95.26
2018-09-02T09:42:29.579Z,95.26
2018-09-02T09:43:29.586Z,95.17
2018-09-02T09:44:29.580Z,95.26
2018-09-02T09:45:29.580Z,94.59
2018-09-02T09:46:29.581Z,94.35
2018-09-02T09:47:29.580Z,94.06
2018-09-02T09:48:29.581Z,94.06
2018-09-02T09:49:29.580Z,94.45
2018-09-02T09:50:29.581Z,93.10
2018-09-02T09:51:29.583Z,93.01
2018-09-02T09:52:29.581Z,93.19
2018-09-02T09:53:29.577Z,93.39
2018-09-02T09:54:29.581Z,92.91
2018-09-02T09:55:29.623Z,93.77
2018-09-02T09:56:29.580Z,93.19
2018-09-02T09:57:29.580Z,93.29
2018-09-02T09:58:29.585Z,93.01
2018-09-02T09:59:29.581Z,93.68
2018-09-02T10:00:29.582Z,92.72
2018-09-02T10:01:29.581Z,92.81
2018-09-02T10:02:29.583Z,92.33
2018-09-02T10:03:29.606Z,92.52
2018-09-02T10:04:29.584Z,91.95
2018-09-02T10:05:29.584Z,91.95
2018-09-02T10:06:29.583Z,91.61
2018-09-02T10:07:29.587Z,91.42
2018-09-02T10:08:29.585Z,91.03
2018-09-02T10:09:29.584Z,91.03
2018-09-02T10:10:29.675Z,90.07
2018-09-02T10:11:29.586Z,90.07
2018-09-02T10:12:29.586Z,89.88
2018-09-02T10:13:29.586Z,89.69
2018-09-02T10:14:29.590Z,89.69
2018-09-02T10:15:29.591Z,88.92
2018-09-02T10:16:29.589Z,89.78
2018-09-02T10:17:29.592Z,89.78
2018-09-02T10:18:29.589Z,90.07
2018-09-02T10:19:29.585Z,89.59
2018-09-02T10:20:29.591Z,89.11
2018-09-02T10:21:29.594Z,89.69
2018-09-02T10:22:29.619Z,90.17
2018-09-02T10:23:29.592Z,90.84
2018-09-02T10:24:29.594Z,90.26
2018-09-02T10:25:29.592Z,90.17
2018-09-02T10:26:29.596Z,90.26
2018-09-02T10:27:29.632Z,90.07
2018-09-02T10:28:29.594Z,90.36
2018-09-02T10:29:29.591Z,89.78
2018-09-02T10:30:29.595Z,90.17
2018-09-02T10:31:29.597Z,90.26
2018-09-02T10:32:29.597Z,90.60
2018-09-02T10:33:29.731Z,90.26
2018-09-02T10:34:29.598Z,90.75
2018-09-02T10:35:29.600Z,89.98
2018-09-02T10:36:29.599Z,90.07
2018-09-02T10:37:29.602Z,89.21
2018-09-02T10:38:29.603Z,89.88
2018-09-02T10:39:29.601Z,89.69
2018-09-02T10:40:29.602Z,89.50
2018-09-02T10:41:29.646Z,90.07
2018-09-02T10:42:29.603Z,89.30
2018-09-02T10:43:29.605Z,89.11
2018-09-02T10:44:29.605Z,89.11
2018-09-02T10:45:29.604Z,88.92
2018-09-02T10:46:29.604Z,89.21
2018-09-02T10:47:29.605Z,88.73
2018-09-02T10:48:29.605Z,88.53
2018-09-02T10:49:29.655Z,88.57
2018-09-02T10:50:29.608Z,88.67
2018-09-02T10:51:29.608Z,88.24
2018-09-02T10:52:29.608Z,88.57
2018-09-02T10:53:29.611Z,88.19
2018-09-02T10:54:29.615Z,87.90
2018-09-02T10:55:29.608Z,88.39
2018-09-02T10:56:29.609Z,88.48
2018-09-02T10:57:29.610Z,88.29
2018-09-02T10:58:29.611Z,88.57
2018-09-02T10:59:29.624Z,87.33
2018-09-02T11:00:29.613Z,88.39
2018-09-02T11:01:29.611Z,88.48
2018-09-02T11:02:29.614Z,88.29
2018-09-02T11:03:29.616Z,87.33
2018-09-02T11:04:29.617Z,87.52
2018-09-02T11:05:29.614Z,87.42
2018-09-02T11:06:29.613Z,87.62
2018-09-02T11:07:29.617Z,88.00
2018-09-02T11:08:29.647Z,87.42
2018-09-02T11:09:29.617Z,86.36
2018-09-02T11:10:29.617Z,86.31
2018-09-02T11:11:29.622Z,87.18
2018-09-02T11:12:29.619Z,86.79
2018-09-02T11:13:29.667Z,87.37
2018-09-02T11:14:29.622Z,86.41
2018-09-02T11:15:29.622Z,86.41
2018-09-02T11:16:29.621Z,86.02
2018-09-02T11:17:29.629Z,86.31
2018-09-02T11:18:29.632Z,86.41
2018-09-02T11:19:29.625Z,85.54
2018-09-02T11:20:29.625Z,85.83
2018-09-02T11:21:29.630Z,85.93
2018-09-02T11:22:29.628Z,85.93
2018-09-02T11:23:29.630Z,85.93
2018-09-02T11:24:29.630Z,85.35
2018-09-02T11:25:29.630Z,85.44
2018-09-02T11:26:29.632Z,85.25
2018-09-02T11:27:29.631Z,85.06
2018-09-02T11:28:29.630Z,85.16
2018-09-02T11:29:29.631Z,84.87
2018-09-02T11:30:29.634Z,85.16
2018-09-02T11:31:29.636Z,85.00
2018-09-02T11:32:29.636Z,84.97
2018-09-02T11:33:29.633Z,84.33
2018-09-02T11:34:29.638Z,84.43
2018-09-02T11:35:29.667Z,83.85
2018-09-02T11:36:29.646Z,83.66
2018-09-02T11:37:29.640Z,83.95
2018-09-02T11:38:29.643Z,83.47
2018-09-02T11:39:29.645Z,83.28
2018-09-02T11:40:29.646Z,83.18
2018-09-02T11:41:29.645Z,83.18
2018-09-02T11:42:29.647Z,83.31
2018-09-02T11:43:29.649Z,82.98
2018-09-02T11:44:29.647Z,83.31
2018-09-02T11:45:29.652Z,81.87
2018-09-02T11:46:29.650Z,81.48
2018-09-02T11:47:29.652Z,81.20
2018-09-02T11:48:29.653Z,81.20
2018-09-02T11:49:29.655Z,81.58
2018-09-02T11:50:29.658Z,81.48
2018-09-02T11:51:29.664Z,81.39
2018-09-02T11:52:29.657Z,81.29
2018-09-02T11:53:29.660Z,81.10
2018-09-02T11:54:29.665Z,81.10
2018-09-02T11:55:29.661Z,80.46
2018-09-02T11:56:29.664Z,81.04
2018-09-02T11:57:29.665Z,80.66
2018-09-02T11:58:29.667Z,80.27
2018-09-02T11:59:29.668Z,79.21
2018-09-02T12:00:29.668Z,79.60
2018-09-02T12:01:29.669Z,78.92
2018-09-02T12:02:29.673Z,79.16
2018-09-02T12:03:29.679Z,79.02
2018-09-02T12:04:29.672Z,79.02
2018-09-02T12:05:29.680Z,78.83
2018-09-02T12:06:29.683Z,78.83
2018-09-02T12:07:29.678Z,78.86
2018-09-02T12:08:29.681Z,77.81
2018-09-02T12:09:29.682Z,77.23
2018-09-02T12:10:29.686Z,77.26
2018-09-02T12:11:29.696Z,77.55
2018-09-02T12:12:29.691Z,75.68
2018-09-02T12:13:29.688Z,76.26
2018-09-02T12:14:29.793Z,76.36
2018-09-02T12:15:29.694Z,76.01
2018-09-02T12:16:29.695Z,75.72
2018-09-02T12:17:29.696Z,75.14
2018-09-02T12:18:29.699Z,75.62
2018-09-02T12:19:29.698Z,74.27
2018-09-02T12:20:29.702Z,74.99
2018-09-02T12:21:29.705Z,74.02
2018-09-02T12:22:29.706Z,73.50
2018-09-02T12:23:29.709Z,73.93
2018-09-02T12:24:29.714Z,72.96
2018-09-02T12:25:29.712Z,72.96
2018-09-02T12:26:29.716Z,73.25
2018-09-02T12:27:29.713Z,73.06
2018-09-02T12:28:29.718Z,72.86
2018-09-02T12:29:29.719Z,73.06
2018-09-02T12:30:29.721Z,72.00
2018-09-02T12:31:29.770Z,72.19
2018-09-02T12:32:29.729Z,72.19
2018-09-02T12:33:29.727Z,72.58
2018-09-02T12:34:29.734Z,72.28
2018-09-02T12:35:29.732Z,71.70
2018-09-02T12:36:29.737Z,72.00
2018-09-02T12:37:29.739Z,72.00
2018-09-02T12:38:29.739Z,71.38
2018-09-02T12:39:29.742Z,71.58
2018-09-02T12:40:29.744Z,71.38
2018-09-02T12:41:29.745Z,71.51
2018-09-02T12:42:29.748Z,71.61
2018-09-02T12:43:29.756Z,71.80
2018-09-02T12:44:29.755Z,70.94
2018-09-02T12:45:29.755Z,70.94
2018-09-02T12:46:29.759Z,71.90
2018-09-02T12:47:29.759Z,71.42
2018-09-02T12:48:29.765Z,70.54
2018-09-02T12:49:29.774Z,71.42
2018-09-02T12:50:29.767Z,71.51
2018-09-02T12:51:29.770Z,71.51
2018-09-02T12:52:29.771Z,71.61